createdAt,value
2018-06-01T00:00:36.778Z,22.89
2018-06-01T00:01:46.916Z,22.78
2018-06-01T00:02:56.735Z,22.82
2018-06-01T00:04:06.842Z,22.78
2018-06-01T00:05:16.949Z,22.78
2018-06-01T00:06:27.040Z,22.82
2018-06-01T00:07:37.112Z,22.79
2018-06-01T00:08:47.198Z,22.78
2018-06-01T00:09:57.285Z,22.78
2018-06-01T00:11:07.363Z,22.73
2018-06-01T00:12:17.197Z,22.71
2018-06-01T00:13:27.274Z,22.71
2018-06-01T00:14:37.081Z,22.64
2018-06-01T00:15:46.903Z,22.7
2018-06-01T00:16:56.778Z,22.63
2018-06-01T00:18:06.854Z,22.57
2018-06-01T00:19:16.938Z,22.63
2018-06-01T00:20:27.037Z,22.67
2018-06-01T00:21:37.116Z,22.7
2018-06-01T00:22:47.198Z,22.6
2018-06-01T00:23:57.285Z,22.64
2018-06-01T00:25:07.122Z,22.61
2018-06-01T00:26:17.320Z,22.6
2018-06-01T00:27:27.394Z,22.6
2018-06-01T00:28:37.217Z,22.54
2018-06-01T00:29:47.299Z,22.6
2018-06-01T00:30:57.175Z,22.57
2018-06-01T00:32:06.981Z,22.49
2018-06-01T00:33:17.059Z,22.48
2018-06-01T00:34:27.139Z,22.48
2018-06-01T00:35:37.248Z,22.39
2018-06-01T00:36:47.341Z,22.39
2018-06-01T00:37:57.158Z,22.45
2018-06-01T00:39:07.242Z,22.39
2018-06-01T00:40:17.328Z,22.44
2018-06-01T00:41:27.414Z,22.39
2018-06-01T00:42:37.519Z,22.41
2018-06-01T00:43:47.617Z,22.42
2018-06-01T00:44:57.439Z,22.46
2018-06-01T00:46:07.547Z,22.44
2018-06-01T00:47:17.647Z,22.34
2018-06-01T00:48:27.507Z,22.44
2018-06-01T00:49:36.797Z,22.38
2018-06-01T00:50:46.909Z,22.36
2018-06-01T00:51:57.073Z,22.42
2018-06-01T00:53:07.163Z,22.36
2018-06-01T00:54:17.247Z,22.38
2018-06-01T00:55:27.335Z,22.31
2018-06-01T00:56:37.419Z,22.27
2018-06-01T00:57:47.252Z,22.27
2018-06-01T00:58:57.336Z,22.27
2018-06-01T01:00:07.415Z,22.33
2018-06-01T01:01:17.501Z,22.34
2018-06-01T01:02:27.580Z,22.23
2018-06-01T01:03:37.713Z,22.31
2018-06-01T01:04:47.795Z,22.34
2018-06-01T01:05:57.612Z,22.27
2018-06-01T01:07:07.699Z,22.27
2018-06-01T01:08:17.523Z,22.26
2018-06-01T01:09:27.615Z,22.2
2018-06-01T01:10:37.708Z,22.27
2018-06-01T01:11:47.779Z,22.26
2018-06-01T01:12:57.598Z,22.23
2018-06-01T01:14:07.698Z,22.16
2018-06-01T01:15:17.847Z,22.24
2018-06-01T01:16:27.927Z,22.22
2018-06-01T01:17:38.029Z,22.24
2018-06-01T01:18:48.128Z,22.09
2018-06-01T01:19:58.206Z,22.12
2018-06-01T01:21:08.288Z,22.14
2018-06-01T01:22:18.360Z,21.97
2018-06-01T01:23:28.186Z,22.02
2018-06-01T01:24:38.284Z,21.96
2018-06-01T01:25:48.350Z,22.05
2018-06-01T01:26:58.152Z,21.99
2018-06-01T01:28:08.231Z,21.92
2018-06-01T01:29:18.322Z,21.94
2018-06-01T01:30:27.868Z,21.94
2018-06-01T01:31:37.424Z,21.99
2018-06-01T01:32:46.977Z,22.02
2018-06-01T01:33:57.052Z,22
2018-06-01T01:35:06.874Z,21.94
2018-06-01T01:36:16.699Z,21.96
2018-06-01T01:37:26.777Z,21.99
2018-06-01T01:38:36.929Z,21.96
2018-06-01T01:39:46.750Z,21.99
2018-06-01T01:40:56.844Z,21.97
2018-06-01T01:42:06.664Z,21.85
2018-06-01T01:43:16.740Z,21.92
2018-06-01T01:44:26.882Z,21.93
2018-06-01T01:45:36.993Z,21.85
2018-06-01T01:46:47.802Z,21.82
2018-06-01T01:47:57.889Z,21.86
2018-06-01T01:49:07.695Z,21.83
2018-06-01T01:50:17.517Z,21.83
2018-06-01T01:51:27.647Z,21.85
2018-06-01T01:52:37.485Z,21.89
2018-06-01T01:53:47.566Z,21.8
2018-06-01T01:54:57.393Z,21.8
2018-06-01T01:56:07.492Z,21.78
2018-06-01T01:57:17.564Z,21.82
2018-06-01T01:58:27.644Z,21.83
2018-06-01T01:59:37.721Z,21.68
2018-06-01T02:00:47.810Z,21.76
2018-06-01T02:01:57.904Z,21.77
2018-06-01T02:03:07.750Z,21.76
2018-06-01T02:04:17.839Z,21.71
2018-06-01T02:05:27.921Z,21.71
2018-06-01T02:06:37.990Z,21.76
2018-06-01T02:07:47.853Z,21.73
2018-06-01T02:08:57.682Z,21.76
2018-06-01T02:10:07.760Z,21.68
2018-06-01T02:11:17.859Z,21.68
2018-06-01T02:12:27.941Z,21.76
2018-06-01T02:13:37.762Z,21.74
2018-06-01T02:14:47.838Z,21.68
2018-06-01T02:15:57.921Z,21.68
2018-06-01T02:17:08.029Z,21.7
2018-06-01T02:18:18.110Z,21.68
2018-06-01T02:19:27.968Z,21.61
2018-06-01T02:20:38.045Z,21.7
2018-06-01T02:21:48.131Z,21.66
2018-06-01T02:22:58.224Z,21.74
2018-06-01T02:24:08.294Z,21.7
2018-06-01T02:25:17.894Z,21.68
2018-06-01T02:26:27.711Z,21.7
2018-06-01T02:27:37.539Z,21.76
2018-06-01T02:28:47.662Z,21.74
2018-06-01T02:29:57.746Z,21.76
2018-06-01T02:31:07.827Z,21.71
2018-06-01T02:32:17.655Z,21.78
2018-06-01T02:33:27.757Z,21.68
2018-06-01T02:34:37.855Z,21.77
2018-06-01T02:35:47.697Z,21.71
2018-06-01T02:36:57.250Z,21.7
2018-06-01T02:38:07.069Z,21.73
2018-06-01T02:39:17.164Z,21.62
2018-06-01T02:40:27.262Z,21.62
2018-06-01T02:41:37.358Z,21.64
2018-06-01T02:42:47.422Z,21.56
2018-06-01T02:43:57.503Z,21.58
2018-06-01T02:45:07.593Z,21.59
2018-06-01T02:46:17.413Z,21.73
2018-06-01T02:47:27.504Z,21.73
2018-06-01T02:48:37.579Z,21.66
2018-06-01T02:49:47.413Z,21.68
2018-06-01T02:50:57.494Z,21.73
2018-06-01T02:52:07.576Z,21.71
2018-06-01T02:53:17.656Z,21.7
2018-06-01T02:54:27.478Z,21.71
2018-06-01T02:55:37.553Z,21.77
2018-06-01T02:56:47.391Z,21.73
2018-06-01T02:57:57.464Z,21.76
2018-06-01T02:59:07.554Z,21.78
2018-06-01T03:00:17.654Z,21.77
2018-06-01T03:01:27.514Z,21.74
2018-06-01T03:02:37.065Z,21.78
2018-06-01T03:35:08.006Z,20.57
2018-06-01T03:36:17.535Z,20.6
2018-06-01T03:37:27.345Z,20.66
2018-06-01T03:38:37.417Z,20.68
2018-06-01T03:39:47.488Z,20.74
2018-06-01T03:40:57.361Z,20.86
2018-06-01T03:42:07.420Z,21.01
2018-06-01T03:43:17.229Z,21.16
2018-06-01T03:44:27.304Z,21.19
2018-06-01T03:45:37.366Z,21.48
2018-06-01T03:46:46.962Z,21.55
2018-06-01T03:47:57.031Z,21.68
2018-06-01T03:49:07.103Z,21.89
2018-06-01T03:50:17.188Z,21.93
2018-06-01T03:51:27.009Z,22.15
2018-06-01T03:52:37.144Z,22.27
2018-06-01T03:53:47.232Z,22.52
2018-06-01T03:54:57.033Z,22.67
2018-06-01T03:56:07.121Z,22.84
2018-06-01T03:57:17.187Z,22.92
2018-06-01T03:58:27.280Z,23.09
2018-06-01T03:59:37.360Z,23.24
2018-06-01T04:00:47.435Z,23.47
2018-06-01T04:01:57.533Z,23.56
2018-06-01T04:03:07.351Z,23.6
2018-06-01T04:04:17.502Z,23.74
2018-06-01T04:05:27.599Z,23.9
2018-06-01T04:06:37.683Z,23.94
2018-06-01T04:07:47.768Z,24.11
2018-06-01T04:08:57.890Z,24.29
2018-06-01T04:10:07.761Z,24.37
2018-06-01T04:11:17.591Z,24.54
2018-06-01T04:12:27.673Z,24.58
2018-06-01T04:13:37.509Z,24.75
2018-06-01T04:14:47.581Z,24.78
2018-06-01T04:15:57.412Z,24.87
2018-06-01T04:17:07.241Z,24.97
2018-06-01T04:18:17.059Z,25.23
2018-06-01T04:19:27.139Z,25.88
2018-06-01T04:20:36.966Z,26.49
2018-06-01T04:21:46.775Z,26.94
2018-06-01T04:22:56.878Z,27.45
2018-06-01T04:24:06.961Z,27.83
2018-06-01T04:25:17.052Z,27.87
2018-06-01T04:26:27.118Z,28.08
2018-06-01T04:27:37.301Z,28.28
2018-06-01T04:28:47.567Z,28.36
2018-06-01T04:29:57.135Z,28.72
2018-06-01T04:31:06.962Z,29.06
2018-06-01T04:32:17.035Z,29.35
2018-06-01T04:33:26.864Z,29.76
2018-06-01T04:34:36.961Z,30.35
2018-06-01T04:35:47.045Z,30.94
2018-06-01T04:36:57.130Z,31.26
2018-06-01T04:38:06.953Z,31.38
2018-06-01T04:39:17.077Z,31.75
2018-06-01T04:40:27.215Z,31.95
2018-06-01T04:41:37.430Z,32.08
2018-06-01T04:42:47.509Z,32.34
2018-06-01T04:43:57.574Z,32.43
2018-06-01T04:45:07.655Z,32.5
2018-06-01T04:46:17.467Z,32.67
2018-06-01T04:47:27.281Z,32.86
2018-06-01T04:48:37.370Z,33.05
2018-06-01T04:49:46.942Z,33.21
2018-06-01T04:50:56.758Z,33.16
2018-06-01T04:52:06.852Z,33.28
2018-06-01T04:53:16.959Z,33.36
2018-06-01T04:54:27.036Z,33.58
2018-06-01T04:55:36.852Z,33.61
2018-06-01T04:56:46.949Z,33.84
2018-06-01T04:57:56.761Z,34.05
2018-06-01T04:59:06.856Z,34.22
2018-06-01T05:00:16.681Z,34.54
2018-06-01T05:01:26.513Z,34.74
2018-06-01T05:02:36.607Z,34.97
2018-06-01T05:03:46.699Z,35.16
2018-06-01T05:04:56.526Z,35.31
2018-06-01T05:06:06.629Z,35.38
2018-06-01T05:07:16.502Z,35.43
2018-06-01T05:08:26.586Z,35.5
2018-06-01T05:09:36.684Z,35.55
2018-06-01T05:10:46.784Z,35.55
2018-06-01T05:11:56.612Z,35.64
2018-06-01T05:13:06.189Z,35.58
2018-06-01T05:14:16.274Z,35.67
2018-06-01T05:15:26.361Z,35.76
2018-06-01T05:16:36.586Z,35.79
2018-06-01T05:17:46.932Z,35.94
2018-06-01T05:18:57.037Z,36.09
2018-06-01T05:20:06.884Z,36.18
2018-06-01T05:21:17.041Z,36.3
2018-06-01T05:22:27.178Z,36.33
2018-06-01T05:23:37.256Z,36.24
2018-06-01T05:24:47.336Z,36.3
2018-06-01T05:25:56.927Z,36.34
2018-06-01T05:27:07.007Z,36.37
2018-06-01T05:28:17.100Z,36.34
2018-06-01T05:29:27.179Z,36.37
2018-06-01T05:30:37.279Z,36.44
2018-06-01T05:31:47.153Z,36.56
2018-06-01T05:32:57.258Z,36.65
2018-06-01T05:34:07.341Z,36.61
2018-06-01T05:35:17.172Z,36.63
2018-06-01T05:36:27.308Z,36.58
2018-06-01T05:37:37.397Z,36.61
2018-06-01T05:38:47.482Z,36.58
2018-06-01T05:39:57.564Z,36.59
2018-06-01T05:41:07.656Z,36.65
2018-06-01T05:42:17.474Z,36.56
2018-06-01T05:43:27.569Z,36.61
2018-06-01T05:44:37.394Z,36.7
2018-06-01T05:45:47.214Z,36.74
2018-06-01T05:46:57.301Z,36.71
2018-06-01T05:48:07.393Z,36.68
2018-06-01T05:49:17.495Z,36.67
2018-06-01T05:50:27.584Z,36.71
2018-06-01T05:51:37.417Z,36.67
2018-06-01T05:52:46.965Z,36.77
2018-06-01T05:53:57.054Z,36.63
2018-06-01T05:55:06.966Z,36.52
2018-06-01T05:56:17.055Z,36.33
2018-06-01T05:57:26.895Z,36.21
2018-06-01T05:58:36.991Z,36.09
2018-06-01T05:59:47.069Z,35.92
2018-06-01T06:00:57.203Z,35.98
2018-06-01T06:02:07.038Z,35.57
2018-06-01T06:03:17.159Z,34.83
2018-06-01T06:04:27.287Z,34.1
2018-06-01T06:05:37.168Z,33.61
2018-06-01T06:06:46.990Z,33.23
2018-06-01T06:07:56.810Z,33.03
2018-06-01T06:09:06.923Z,32.87
2018-06-01T06:10:16.989Z,32.69
2018-06-01T06:11:27.125Z,32.53
2018-06-01T06:12:36.987Z,32.39
2018-06-01T06:13:47.060Z,32.31
2018-06-01T06:14:56.887Z,32.25
2018-06-01T06:16:06.978Z,32.25
2018-06-01T06:17:16.828Z,32.37
2018-06-01T06:18:26.915Z,32.35
2018-06-01T06:19:36.997Z,32.68
2018-06-01T06:20:46.818Z,32.9
2018-06-01T06:21:56.897Z,32.99
2018-06-01T06:23:06.998Z,33.02
2018-06-01T06:24:16.554Z,33.02
2018-06-01T06:25:26.670Z,32.96
2018-06-01T06:26:36.776Z,33.02
2018-06-01T06:27:46.890Z,33.11
2018-06-01T06:28:56.972Z,33.17
2018-06-01T06:30:06.849Z,33.21
2018-06-01T06:31:16.678Z,33.2
2018-06-01T06:32:26.871Z,33.02
2018-06-01T06:33:36.976Z,33.06
2018-06-01T06:34:47.061Z,32.91
2018-06-01T06:35:56.998Z,32.93
2018-06-01T06:37:07.145Z,32.69
2018-06-01T06:38:17.227Z,32.59
2018-06-01T06:39:27.077Z,32.62
2018-06-01T06:40:37.178Z,32.46
2018-06-01T06:41:47.504Z,32.34
2018-06-01T06:42:57.632Z,32.17
2018-06-01T06:44:07.453Z,32.01
2018-06-01T06:45:17.525Z,31.93
2018-06-01T06:46:27.645Z,31.8
2018-06-01T06:47:37.785Z,31.71
2018-06-01T06:48:47.621Z,31.55
2018-06-01T06:49:57.460Z,31.49
2018-06-01T06:51:07.541Z,31.56
2018-06-01T06:52:17.376Z,31.58
2018-06-01T06:53:27.227Z,31.63
2018-06-01T06:54:37.049Z,31.72
2018-06-01T06:55:47.180Z,31.82
2018-06-01T06:56:56.993Z,31.91
2018-06-01T06:58:06.841Z,31.97
2018-06-01T06:59:16.950Z,32.13
2018-06-01T07:00:26.784Z,32.28
2018-06-01T07:01:36.888Z,32.61
2018-06-01T07:02:46.881Z,32.75
2018-06-01T07:03:56.676Z,33.08
2018-06-01T07:05:06.789Z,33.18
2018-06-01T07:06:16.359Z,33.31
2018-06-01T07:07:26.450Z,33.34
2018-06-01T07:08:36.535Z,33.39
2018-06-01T07:09:46.636Z,33.13
2018-06-01T07:10:56.869Z,33.09
2018-06-01T07:12:06.973Z,32.96
2018-06-01T07:13:17.054Z,32.8
2018-06-01T07:14:26.874Z,32.81
2018-06-01T07:15:36.981Z,32.72
2018-06-01T07:16:47.125Z,32.74
2018-06-01T07:17:56.948Z,32.75
2018-06-01T07:19:07.034Z,32.94
2018-06-01T07:20:17.195Z,33.26
2018-06-01T07:21:27.379Z,33.56
2018-06-01T07:22:37.640Z,33.84
2018-06-01T07:23:47.469Z,34.1
2018-06-01T07:24:57.621Z,34.21
2018-06-01T07:26:07.697Z,34.37
2018-06-01T07:27:17.800Z,34.33
2018-06-01T07:28:27.922Z,34.46
2018-06-01T07:29:38.032Z,34.43
2018-06-01T07:30:48.115Z,34.39
2018-06-01T07:31:58.239Z,34.37
2018-06-01T07:33:08.063Z,34.33
2018-06-01T07:34:17.967Z,34.3
2018-06-01T07:35:28.062Z,34.19
2018-06-01T07:36:37.644Z,33.99
2018-06-01T07:37:47.751Z,33.93
2018-06-01T07:38:57.669Z,33.69
2018-06-01T07:40:07.741Z,33.56
2018-06-01T07:41:17.580Z,33.41
2018-06-01T07:42:27.401Z,33.21
2018-06-01T07:43:37.503Z,33.09
2018-06-01T07:44:47.324Z,33.03
2018-06-01T07:45:57.192Z,32.89
2018-06-01T07:47:07.281Z,32.68
2018-06-01T07:48:17.372Z,32.57
2018-06-01T07:49:27.495Z,32.62
2018-06-01T07:50:37.344Z,32.47
2018-06-01T07:51:47.210Z,32.52
2018-06-01T07:52:57.039Z,32.68
2018-06-01T07:54:07.116Z,32.68
2018-06-01T07:55:16.678Z,32.8
2018-06-01T07:56:26.773Z,32.76
2018-06-01T07:57:36.917Z,32.89
2018-06-01T07:58:46.743Z,32.84
2018-06-01T07:59:56.860Z,33.01
2018-06-01T08:01:06.689Z,33.01
2018-06-01T08:02:16.765Z,33.05
2018-06-01T08:03:26.917Z,33.08
2018-06-01T08:04:37.133Z,33.12
2018-06-01T08:05:46.946Z,33.13
2018-06-01T08:06:56.767Z,33.21
2018-06-01T08:08:06.335Z,33.26
2018-06-01T08:09:16.689Z,33.37
2018-06-01T08:10:26.786Z,33.37
2018-06-01T08:11:36.893Z,33.4
2018-06-01T08:12:46.707Z,33.43
2018-06-01T08:13:56.826Z,33.47
2018-06-01T08:15:06.413Z,33.59
2018-06-01T08:16:16.504Z,33.59
2018-06-01T08:17:26.602Z,33.58
2018-06-01T08:18:36.680Z,33.59
2018-06-01T08:19:46.770Z,33.65
2018-06-01T08:20:56.921Z,33.73
2018-06-01T08:22:06.496Z,33.73
2018-06-01T08:23:16.600Z,33.75
2018-06-01T08:24:26.427Z,33.77
2018-06-01T08:25:36.513Z,33.73
2018-06-01T08:26:46.596Z,33.62
2018-06-01T08:27:56.691Z,33.73
2018-06-01T08:29:06.524Z,33.73
2018-06-01T08:30:16.096Z,33.74
2018-06-01T08:31:26.172Z,33.69
2018-06-01T08:32:36.472Z,33.83
2018-06-01T08:33:46.654Z,33.9
2018-06-01T08:34:56.735Z,34.05
2018-06-01T08:36:06.823Z,34.1
2018-06-01T08:37:16.917Z,34.08
2018-06-01T08:38:27.024Z,34.11
2018-06-01T08:39:37.248Z,34.06
2018-06-01T08:40:47.337Z,34.1
2018-06-01T08:41:57.416Z,34.1
2018-06-01T08:43:07.533Z,34.12
2018-06-01T08:44:17.629Z,34.26
2018-06-01T08:45:27.462Z,34.24
2018-06-01T08:46:37.669Z,34.34
2018-06-01T08:47:47.658Z,34.34
2018-06-01T08:48:57.491Z,34.3
2018-06-01T08:50:07.566Z,34.46
2018-06-01T08:51:17.668Z,34.55
2018-06-01T08:52:27.288Z,34.74
2018-06-01T08:53:37.565Z,34.75
2018-06-01T08:54:47.416Z,34.81
2018-06-01T08:55:57.238Z,34.89
2018-06-01T08:57:07.340Z,34.96
2018-06-01T08:58:17.198Z,34.87
2018-06-01T08:59:27.316Z,35.01
2018-06-01T09:00:37.411Z,35.06
2018-06-01T09:01:47.253Z,35.26
2018-06-01T09:02:57.370Z,35.38
2018-06-01T09:04:07.471Z,35.57
2018-06-01T09:05:17.569Z,35.61
2018-06-01T09:06:27.659Z,35.71
2018-06-01T09:07:37.738Z,35.82
2018-06-01T09:08:47.579Z,35.84
2018-06-01T09:09:57.410Z,35.96
2018-06-01T09:11:07.641Z,35.92
2018-06-01T09:12:17.209Z,35.83
2018-06-01T09:13:27.043Z,35.74
2018-06-01T09:14:37.124Z,35.68
2018-06-01T09:15:47.223Z,35.58
2018-06-01T09:16:57.343Z,35.65
2018-06-01T09:18:07.461Z,35.47
2018-06-01T09:19:17.584Z,35.55
2018-06-01T09:20:27.417Z,35.87
2018-06-01T09:21:37.512Z,36.32
2018-06-01T09:22:47.689Z,36.61
2018-06-01T09:23:57.528Z,36.81
2018-06-01T09:25:07.630Z,37.02
2018-06-01T09:26:17.719Z,37.12
2018-06-01T09:27:27.811Z,37.29
2018-06-01T09:28:37.935Z,37.26
2018-06-01T09:29:47.784Z,37.59
2018-06-01T09:30:57.619Z,37.81
2018-06-01T09:32:07.723Z,37.84
2018-06-01T09:33:17.824Z,37.81
2018-06-01T09:34:27.804Z,37.83
2018-06-01T09:35:37.833Z,37.84
2018-06-01T09:36:47.951Z,37.84
2018-06-01T09:37:57.781Z,37.8
2018-06-01T09:39:07.946Z,37.71
2018-06-01T09:40:17.768Z,37.48
2018-06-01T09:41:27.875Z,37.22
2018-06-01T09:42:37.991Z,36.93
2018-06-01T09:43:48.112Z,36.74
2018-06-01T09:44:58.274Z,36.58
2018-06-01T09:46:08.401Z,36.62
2018-06-01T09:47:18.503Z,36.63
2018-06-01T09:48:28.351Z,36.78
2018-06-01T09:49:38.203Z,37
2018-06-01T09:50:48.305Z,37.18
2018-06-01T09:51:58.419Z,37.24
2018-06-01T09:53:08.542Z,37.45
2018-06-01T09:54:18.641Z,37.61
2018-06-01T09:55:28.635Z,37.65
2018-06-01T09:56:38.699Z,37.64
2018-06-01T09:57:48.546Z,37.26
2018-06-01T09:58:58.365Z,36.97
2018-06-01T10:00:08.193Z,36.62
2018-06-01T10:01:18.053Z,36.46
2018-06-01T10:02:28.137Z,36.26
2018-06-01T10:03:38.261Z,36.21
2018-06-01T10:04:48.357Z,36.12
2018-06-01T10:05:58.562Z,36.06
2018-06-01T10:07:08.424Z,35.9
2018-06-01T10:08:18.274Z,35.68
2018-06-01T10:09:27.573Z,35.58
2018-06-01T10:10:37.676Z,35.27
2018-06-01T10:11:47.518Z,35.08
2018-06-01T10:12:57.339Z,34.9
2018-06-01T10:14:07.227Z,34.59
2018-06-01T10:15:17.435Z,34.33
2018-06-01T10:16:27.560Z,34.15
2018-06-01T10:17:37.658Z,34.02
2018-06-01T10:18:47.231Z,33.77
2018-06-01T10:19:57.339Z,33.69
2018-06-01T10:21:07.462Z,33.73
2018-06-01T10:22:17.302Z,33.58
2018-06-01T10:23:27.398Z,33.59
2018-06-01T10:24:37.510Z,33.56
2018-06-01T10:25:47.644Z,33.47
2018-06-01T10:26:57.480Z,33.41
2018-06-01T10:28:07.328Z,33.41
2018-06-01T10:29:17.418Z,33.34
2018-06-01T10:30:27.515Z,33.28
2018-06-01T10:31:37.411Z,33.28
2018-06-01T10:32:47.249Z,33.31
2018-06-01T10:33:57.374Z,33.21
2018-06-01T10:35:07.465Z,33.16
2018-06-01T10:36:17.287Z,33.31
2018-06-01T10:37:27.192Z,33.23
2018-06-01T10:38:37.436Z,33.36
2018-06-01T10:39:47.403Z,33.21
2018-06-01T10:40:57.252Z,33.23
2018-06-01T10:42:07.351Z,33.17
2018-06-01T10:43:17.492Z,33.05
2018-06-01T10:44:27.623Z,32.9
2018-06-01T10:45:37.456Z,32.84
2018-06-01T10:46:47.551Z,32.69
2018-06-01T10:47:57.664Z,32.71
2018-06-01T10:49:07.547Z,32.46
2018-06-01T10:50:17.678Z,32.5
2018-06-01T10:51:27.806Z,32.37
2018-06-01T10:52:37.944Z,32.37
2018-06-01T10:53:48.034Z,32.42
2018-06-01T10:54:57.928Z,32.38
2018-06-01T10:56:08.020Z,32.31
2018-06-01T10:57:18.131Z,32.23
2018-06-01T10:58:28.218Z,32.1
2018-06-01T10:59:38.056Z,32.03
2018-06-01T11:00:48.198Z,31.86
2018-06-01T11:01:58.270Z,31.91
2018-06-01T11:03:08.107Z,31.77
2018-06-01T11:04:18.198Z,31.81
2018-06-01T11:05:28.290Z,31.82
2018-06-01T11:06:37.896Z,31.91
2018-06-01T11:07:47.979Z,31.9
2018-06-01T11:08:58.121Z,31.93
2018-06-01T11:10:07.966Z,31.94
2018-06-01T11:11:17.539Z,31.95
2018-06-01T11:12:27.637Z,31.91
2018-06-01T11:13:37.774Z,31.91
2018-06-01T11:14:47.913Z,31.93
2018-06-01T11:15:57.745Z,31.74
2018-06-01T11:17:07.825Z,31.75
2018-06-01T11:18:17.656Z,31.63
2018-06-01T11:19:27.734Z,31.56
2018-06-01T11:20:37.844Z,31.47
2018-06-01T11:21:47.941Z,31.41
2018-06-01T11:22:58.192Z,31.43
2018-06-01T11:24:08.070Z,31.43
2018-06-01T11:25:18.169Z,31.4
2018-06-01T11:26:28.293Z,31.41
2018-06-01T11:27:38.410Z,31.41
2018-06-01T11:28:48.251Z,31.44
2018-06-01T11:29:58.391Z,31.49
2018-06-01T11:31:08.493Z,31.5
2018-06-01T11:32:18.691Z,31.55
2018-06-01T11:33:28.865Z,31.56
2018-06-01T11:34:38.691Z,31.6
2018-06-01T11:35:48.525Z,31.65
2018-06-01T11:36:58.446Z,31.7
2018-06-01T11:38:08.536Z,31.67
2018-06-01T11:39:18.417Z,31.72
2018-06-01T11:40:28.536Z,31.65
2018-06-01T11:41:38.414Z,31.7
2018-06-01T11:42:48.490Z,31.7
2018-06-01T11:43:58.596Z,31.72
2018-06-01T11:45:08.696Z,31.75
2018-06-01T11:46:18.625Z,31.72
2018-06-01T11:47:28.991Z,31.72
2018-06-01T11:48:39.141Z,31.74
2018-06-01T11:49:49.300Z,31.78
2018-06-01T11:50:59.443Z,31.74
2018-06-01T11:52:09.636Z,31.7
2018-06-01T11:53:19.762Z,31.78
2018-06-01T11:54:30.073Z,31.74
2018-06-01T11:55:40.681Z,31.82
2018-06-01T11:56:50.989Z,31.78
2018-06-01T11:58:01.165Z,31.88
2018-06-01T11:59:11.490Z,31.93
2018-06-01T12:00:21.622Z,31.91
2018-06-01T12:01:31.806Z,31.94
2018-06-01T12:02:41.799Z,31.95
2018-06-01T12:03:51.928Z,32.03
2018-06-01T12:05:02.095Z,32.03
2018-06-01T12:06:12.306Z,32.03
2018-06-01T12:07:22.417Z,32.08
2018-06-01T12:08:32.579Z,32.15
2018-06-01T12:09:42.414Z,32.17
2018-06-01T12:10:52.859Z,32.12
2018-06-01T12:12:02.839Z,32.28
2018-06-01T12:13:13.161Z,32.27
2018-06-01T12:14:23.645Z,32.34
2018-06-01T12:15:33.857Z,32.38
2018-06-01T12:16:43.878Z,32.39
2018-06-01T12:17:54.168Z,32.46
2018-06-01T12:19:04.266Z,32.45
2018-06-01T12:20:14.445Z,32.46
2018-06-01T12:21:24.345Z,32.43
2018-06-01T12:22:34.241Z,32.5
2018-06-01T12:23:44.223Z,32.56
2018-06-01T12:24:54.406Z,32.52
2018-06-01T12:26:04.629Z,32.54
2018-06-01T12:27:14.771Z,32.52
2018-06-01T12:28:25.428Z,32.54
2018-06-01T12:29:35.127Z,32.65
2018-06-01T12:30:44.697Z,32.64
2018-06-01T12:31:54.823Z,32.65
2018-06-01T12:33:04.928Z,32.68
2018-06-01T12:34:14.768Z,32.67
2018-06-01T12:35:24.356Z,32.72
2018-06-01T12:36:34.466Z,32.81
2018-06-01T12:37:44.564Z,32.91
2018-06-01T12:38:54.653Z,32.93
2018-06-01T12:40:04.502Z,32.91
2018-06-01T12:41:14.605Z,32.94
2018-06-01T12:42:24.697Z,32.81
2018-06-01T12:43:34.777Z,32.84
2018-06-01T12:44:44.897Z,32.86
2018-06-01T12:45:54.778Z,33.01
2018-06-01T12:47:04.875Z,33.02
2018-06-01T12:48:14.995Z,33.02
2018-06-01T12:49:25.110Z,32.99
2018-06-01T12:50:35.220Z,33.05
2018-06-01T12:51:45.086Z,33.11
2018-06-01T12:52:55.241Z,33.09
2018-06-01T12:54:05.479Z,33.06
2018-06-01T12:55:15.540Z,33.08
2018-06-01T12:56:25.647Z,33.17
2018-06-01T12:57:35.833Z,33.18
2018-06-01T12:58:45.914Z,33.21
2018-06-01T12:59:56.032Z,33.26
2018-06-01T13:01:05.897Z,33.12
2018-06-01T13:02:15.985Z,33.17
2018-06-01T13:03:25.935Z,33.24
2018-06-01T13:04:36.155Z,33.24
2018-06-01T13:05:46.290Z,33.36
2018-06-01T13:06:56.391Z,33.41
2018-06-01T13:08:06.214Z,33.43
2018-06-01T13:09:17.379Z,33.48
2018-06-01T13:10:27.487Z,33.47
2018-06-01T13:11:37.591Z,33.44
2018-06-01T13:12:47.686Z,33.53
2018-06-01T13:13:57.789Z,33.55
2018-06-01T13:15:07.911Z,33.63
2018-06-01T13:16:17.760Z,33.63
2018-06-01T13:17:27.908Z,33.75
2018-06-01T13:18:38.347Z,33.97
2018-06-01T13:19:48.462Z,33.97
2018-06-01T13:20:58.768Z,34
2018-06-01T13:22:09.006Z,34
2018-06-01T13:23:19.620Z,34.06
2018-06-01T13:24:29.846Z,34.11
2018-06-01T13:25:40.296Z,34.12
2018-06-01T13:26:50.661Z,34.15
2018-06-01T13:28:01.186Z,34.11
2018-06-01T13:29:11.523Z,34.17
2018-06-01T13:30:22.563Z,34.18
2018-06-01T13:31:33.130Z,34.18
2018-06-01T13:32:44.341Z,34.3
2018-06-01T13:33:55.296Z,34.32
2018-06-01T13:35:06.487Z,34.37
2018-06-01T13:36:17.612Z,34.34
2018-06-01T13:37:29.419Z,34.4
2018-06-01T13:38:40.753Z,34.3
2018-06-01T13:39:54.311Z,34.22
2018-06-01T13:41:05.655Z,34.1
2018-06-01T13:42:16.478Z,34.11
2018-06-01T13:43:28.434Z,34.12
2018-06-01T13:44:40.140Z,34.08
2018-06-01T13:45:52.323Z,34.1
2018-06-01T13:47:03.977Z,34.06
2018-06-01T13:48:15.426Z,34.02
2018-06-01T13:49:26.785Z,33.99
2018-06-01T13:50:36.993Z,34.05
2018-06-01T13:51:47.669Z,34.02
2018-06-01T13:52:58.400Z,33.97
2018-06-01T13:54:08.727Z,34
2018-06-01T13:55:19.933Z,33.93
2018-06-01T13:56:30.333Z,33.95
2018-06-01T13:57:42.395Z,33.83
2018-06-01T13:58:52.899Z,33.83
2018-06-01T14:00:03.980Z,33.89
2018-06-01T14:01:15.488Z,33.81
2018-06-01T14:02:26.926Z,33.87
2018-06-01T14:03:39.224Z,33.85
2018-06-01T14:04:50.368Z,33.96
2018-06-01T14:06:02.379Z,33.95
2018-06-01T14:07:15.536Z,34
2018-06-01T14:08:28.787Z,34.05
2018-06-01T14:09:40.904Z,34.02
2018-06-01T14:10:51.775Z,34
2018-06-01T14:12:03.675Z,34.05
2018-06-01T14:13:15.459Z,34.02
2018-06-01T14:14:26.034Z,34.08
2018-06-01T14:15:37.542Z,34.02
2018-06-01T14:16:48.728Z,34.1
2018-06-01T14:17:59.504Z,34.12
2018-06-01T14:19:10.526Z,34.19
2018-06-01T14:20:21.608Z,34.37
2018-06-01T14:21:32.529Z,34.37
2018-06-01T14:22:43.030Z,34.49
2018-06-01T14:23:53.149Z,34.64
2018-06-01T14:25:03.255Z,34.71
2018-06-01T14:26:13.350Z,34.83
2018-06-01T14:27:23.461Z,34.99
2018-06-01T14:28:33.304Z,34.96
2018-06-01T14:29:43.416Z,34.87
2018-06-01T14:30:53.237Z,34.67
2018-06-01T14:32:02.574Z,34.54
2018-06-01T14:33:12.723Z,34.55
2018-06-01T14:34:22.816Z,34.59
2018-06-01T14:35:32.987Z,34.55
2018-06-01T14:36:43.153Z,34.52
2018-06-01T14:37:53.305Z,34.66
2018-06-01T14:39:03.410Z,34.69
2018-06-01T14:40:13.348Z,34.75
2018-06-01T14:41:23.619Z,34.77
2018-06-01T14:42:33.767Z,34.83
2018-06-01T14:43:43.864Z,34.78
2018-06-01T14:44:53.968Z,34.79
2018-06-01T14:46:04.090Z,34.84
2018-06-01T14:47:14.258Z,34.86
2018-06-01T14:48:24.498Z,34.89
2018-06-01T14:49:34.335Z,34.96
2018-06-01T14:50:44.459Z,34.87
2018-06-01T14:51:54.575Z,34.93
2018-06-01T14:53:04.683Z,34.87
2018-06-01T14:54:14.521Z,34.78
2018-06-01T14:55:24.356Z,34.79
2018-06-01T14:56:34.486Z,34.83
2018-06-01T14:57:44.589Z,34.87
2018-06-01T14:58:54.696Z,34.83
2018-06-01T15:00:04.588Z,34.86
2018-06-01T15:01:14.698Z,34.81
2018-06-01T15:02:24.802Z,34.74
2018-06-01T15:03:34.651Z,34.75
2018-06-01T15:04:44.744Z,34.67
2018-06-01T15:05:54.851Z,34.51
2018-06-01T15:07:04.954Z,34.52
2018-06-01T15:08:14.896Z,34.4
2018-06-01T15:09:24.905Z,34.41
2018-06-01T15:10:35.017Z,34.32
2018-06-01T15:11:45.172Z,34.39
2018-06-01T15:12:55.026Z,34.18
2018-06-01T15:14:05.240Z,34.06
2018-06-01T15:15:15.348Z,34.11
2018-06-01T15:16:25.470Z,34.06
2018-06-01T15:17:35.663Z,34.08
2018-06-01T15:18:45.499Z,34
2018-06-01T15:19:55.606Z,34
2018-06-01T15:21:05.436Z,33.9
2018-06-01T15:22:15.009Z,33.89
2018-06-01T15:23:25.152Z,33.84
2018-06-01T15:24:34.998Z,33.71
2018-06-01T15:25:44.907Z,33.69
2018-06-01T15:26:55.161Z,33.61
2018-06-01T15:28:05.249Z,33.62
2018-06-01T15:29:15.398Z,33.47
2018-06-01T15:30:25.509Z,33.5
2018-06-01T15:31:35.604Z,33.44
2018-06-01T15:32:45.449Z,33.41
2018-06-01T15:33:55.327Z,33.36
2018-06-01T15:35:05.331Z,33.4
2018-06-01T15:36:15.184Z,33.39
2018-06-01T15:37:25.047Z,33.26